CheckWX is a tool to help pilots better visualize weather data.  It is not intended as a substitute for an official pre-flight weather briefing.

04:21:43 UTC

KSUU TAF
Travis AFB Airport
Fairfield, California, USA
TAF KSUU 270300Z 2700/2801 23025G35KT 9999 SKC QNH2993INS BECMG 2705/2706 23012G18KT 9999 SKC QNH2996INS BECMG 2722/2723 24015G25KT 9999 SCT200 QNH3004INS TX25/2723Z TN10/2713Z

Jun-27@
00:00 UTC

Jun-27 @ 00:00 UTC

Jun-27@
05:00 UTC

Jun-27 @ 05:00 UTC

TAF KSUU 270300Z 2700/2801 23025G35KT 9999 SKC QNH2993INS
Wind
  • 230° at 25 KTS
  • {Gusting to 35 KTS
Cloud Levels
  • Clear skies

Jun-27@
05:00 UTC

Jun-27 @ 05:00 UTC

Jun-27@
22:00 UTC

Jun-27 @ 22:00 UTC

BECMG 2705/2706 23012G18KT 9999 SKC QNH2996INS

Becoming

Becoming Conditions expected by Thu, Jun 27, 2019 @ 06:00 UTC

Wind
  • 230° at 12 KTS
  • {Gusting to 18 KTS
Cloud Levels
  • Clear skies

Jun-27@
22:00 UTC

Jun-27 @ 22:00 UTC

Jun-28@
01:00 UTC

Jun-28 @ 01:00 UTC

BECMG 2722/2723 24015G25KT 9999 SCT200 QNH3004INS TX25/2723Z TN10/2713Z

Becoming

Becoming Conditions expected by Thu, Jun 27, 2019 @ 23:00 UTC

Wind
  • 240° at 15 KTS
  • {Gusting to 25 KTS
Cloud Levels
  • Scattered at 20,000' AGL